Данни от 19.02.2018 г. 07:25:58

Температура вътрешна: 20.5 °C
Температура външна: 4.9 °C
Атмосферно налягане: 1003.5 hPa
Атмосферно налягане на морско равнище: 1021.4 hPa
Влажност: 51.0 %



История от последните 24 часа

Дата и часTin [°C]P [hPa]Psl [hPa]H [%]Tout [°C]
   19.02.2018 г. 07:00:58      20.6      1003.2      1021.1      51.6      5.6   
   19.02.2018 г. 06:30:58      20.7      1003.1      1021.0      52.5      5.8   
   19.02.2018 г. 06:00:58      20.8      1003.0      1020.9      52.4      5.8   
   19.02.2018 г. 05:30:58      21.4      1003.0      1020.9      54.2      5.9   
   19.02.2018 г. 05:00:58      21.4      1002.9      1020.8      53.5      5.9   
   19.02.2018 г. 04:30:58      21.5      1002.9      1020.8      53.2      5.9   
   19.02.2018 г. 04:00:58      21.6      1002.9      1020.8      53.8      6.1   
   19.02.2018 г. 03:30:58      21.6      1002.9      1020.8      54.0      6.3   
   19.02.2018 г. 03:00:58      21.6      1002.8      1020.7      53.5      6.1   
   19.02.2018 г. 02:30:58      21.5      1002.8      1020.7      54.0      6.1   
   19.02.2018 г. 02:00:59      21.5      1003.0      1020.9      54.0      6.0   
   19.02.2018 г. 01:30:58      21.4      1002.9      1020.8      53.8      6.3   
   19.02.2018 г. 01:00:58      21.4      1003.1      1021.0      53.5      6.4   
   19.02.2018 г. 00:30:58      21.3      1003.1      1021.0      54.3      6.4   
   19.02.2018 г. 00:00:58      21.4      1003.3      1021.2      52.9      6.6   
   18.02.2018 г. 23:30:58      21.4      1003.3      1021.2      53.5      6.6   
   18.02.2018 г. 23:00:58      21.5      1003.2      1021.1      53.4      6.6   
   18.02.2018 г. 22:30:58      21.6      1003.2      1021.1      53.4      7.0   
   18.02.2018 г. 22:00:58      21.6      1003.2      1021.1      53.2      7.4   
   18.02.2018 г. 21:30:58      21.6      1003.2      1021.2      52.8      7.5   
   18.02.2018 г. 21:00:58      21.4      1003.2      1021.1      54.5      7.3   
   18.02.2018 г. 20:30:58      21.4      1003.0      1020.9      53.9      7.4   
   18.02.2018 г. 20:00:58      21.3      1003.0      1020.9      52.8      8.1   
   18.02.2018 г. 19:30:58      21.2      1003.0      1020.9      51.3      8.0   
   18.02.2018 г. 19:00:58      21.0      1003.0      1020.9      49.1      8.9   
   18.02.2018 г. 18:30:58      21.0      1002.8      1020.7      48.4      9.5   
   18.02.2018 г. 18:00:58      21.0      1002.5      1020.4      47.5      10.3   
   18.02.2018 г. 17:30:58      20.9      1002.1      1020.0      46.2      10.8   
   18.02.2018 г. 17:00:58      20.9      1001.7      1019.6      46.7      11.8   
   18.02.2018 г. 16:30:58      20.8      1001.7      1019.5      46.4      12.4   
   18.02.2018 г. 16:00:58      20.8      1001.4      1019.3      45.3      13.3   
   18.02.2018 г. 15:30:58      20.8      1001.0      1018.9      45.5      15.1   
   18.02.2018 г. 15:00:58      20.7      1001.1      1019.0      45.1      13.9   
   18.02.2018 г. 14:30:59      20.6      1001.3      1019.1      45.9      12.7   
   18.02.2018 г. 14:00:58      20.5      1001.3      1019.2      45.8      11.5   
   18.02.2018 г. 13:30:59      20.4      1001.3      1019.2      45.7      10.4   
   18.02.2018 г. 13:00:58      20.2      1001.4      1019.3      45.3      9.4   
   18.02.2018 г. 12:30:58      20.1      1001.6      1019.5      46.0      9.0   
   18.02.2018 г. 12:00:58      20.1      1001.8      1019.7      45.3      8.4   
   18.02.2018 г. 11:30:58      20.0      1001.9      1019.8      45.8      8.0   
   18.02.2018 г. 11:00:58      20.0      1001.9      1019.8      45.3      7.6   
   18.02.2018 г. 10:30:58      20.0      1001.6      1019.5      47.2      6.9   
   18.02.2018 г. 10:00:58      20.1      1001.8      1019.7      46.9      6.3   
   18.02.2018 г. 09:30:58      20.1      1001.9      1019.8      46.4      5.3   
   18.02.2018 г. 09:00:58      20.2      1001.9      1019.8      45.8      4.4   
   18.02.2018 г. 08:30:58      20.3      1001.7      1019.6      45.1      3.5   
   18.02.2018 г. 08:00:58      20.5      1001.6      1019.5      44.8      2.8   
   18.02.2018 г. 07:30:58      20.6      1001.6      1019.5      45.1      2.4   

BaroSL graphic

TEMPE graphic